createdAt,value
2022-07-29T00:02:01.311Z,30.15
2022-07-29T00:04:32.785Z,30.22
2022-07-29T00:07:05.051Z,30.25
2022-07-29T00:09:51.033Z,30.25
2022-07-29T00:12:26.681Z,30.43
2022-07-29T00:14:58.879Z,30.40
2022-07-29T00:17:29.695Z,30.18
2022-07-29T00:20:00.937Z,30.38
2022-07-29T00:22:32.396Z,30.36
2022-07-29T00:25:03.910Z,30.40
2022-07-29T00:27:35.662Z,30.38
2022-07-29T00:30:08.385Z,30.40
2022-07-29T00:32:40.425Z,30.40
2022-07-29T00:35:30.136Z,30.38
2022-07-29T00:38:02.130Z,30.39
2022-07-29T00:40:33.052Z,30.07
2022-07-29T00:43:04.563Z,30.45
2022-07-29T00:45:36.488Z,30.53
2022-07-29T00:48:11.187Z,30.59
2022-07-29T00:50:42.924Z,30.66
2022-07-29T00:53:15.923Z,30.36
2022-07-29T00:55:47.779Z,30.63
2022-07-29T00:58:19.391Z,30.79
2022-07-29T01:00:50.967Z,30.81
2022-07-29T01:03:22.348Z,30.87
2022-07-29T01:05:54.413Z,30.91
2022-07-29T01:08:26.273Z,30.59
2022-07-29T01:10:58.022Z,30.65
2022-07-29T01:13:29.766Z,30.95
2022-07-29T01:16:24.187Z,30.99
2022-07-29T01:19:03.453Z,30.65
2022-07-29T01:21:34.649Z,31.07
2022-07-29T01:24:21.878Z,31.10
2022-07-29T01:27:02.446Z,30.81
2022-07-29T01:29:55.851Z,30.85
2022-07-29T01:32:34.510Z,31.19
2022-07-29T01:35:28.629Z,31.12
2022-07-29T01:38:28.270Z,31.10
2022-07-29T01:41:08.124Z,30.90
2022-07-29T01:43:59.031Z,31.29
2022-07-29T01:46:41.285Z,31.10
2022-07-29T01:49:18.236Z,31.12
2022-07-29T01:52:08.188Z,31.23
2022-07-29T01:54:46.832Z,31.14
2022-07-29T01:57:22.360Z,31.45
2022-07-29T01:59:55.564Z,31.35
2022-07-29T02:02:29.041Z,31.50
2022-07-29T02:05:02.547Z,31.54
2022-07-29T02:07:36.327Z,31.53
2022-07-29T02:10:10.147Z,31.25
2022-07-29T02:12:43.550Z,31.61
2022-07-29T02:15:22.996Z,31.63
2022-07-29T02:18:21.017Z,31.61
2022-07-29T02:20:57.423Z,31.71
2022-07-29T02:23:30.412Z,31.70
2022-07-29T02:26:03.071Z,31.75
2022-07-29T02:28:36.026Z,31.71
2022-07-29T02:31:08.172Z,31.68
2022-07-29T02:33:43.144Z,31.58
2022-07-29T02:36:15.295Z,31.88
2022-07-29T02:38:54.291Z,31.77
2022-07-29T02:41:52.791Z,31.91
2022-07-29T02:44:30.051Z,31.87
2022-07-29T02:47:15.862Z,31.98
2022-07-29T02:49:59.156Z,31.99
2022-07-29T02:52:57.770Z,31.92
2022-07-29T02:55:40.590Z,32.02
2022-07-29T02:58:31.867Z,32.03
2022-07-29T03:01:11.928Z,31.66
2022-07-29T03:03:47.868Z,32.08
2022-07-29T03:06:28.227Z,31.93
2022-07-29T03:09:13.950Z,31.87
2022-07-29T03:11:50.512Z,32.09
2022-07-29T03:14:23.217Z,32.21
2022-07-29T03:16:55.663Z,32.23
2022-07-29T03:19:27.597Z,32.23
2022-07-29T03:22:01.652Z,32.27
2022-07-29T03:24:35.766Z,32.28
2022-07-29T03:27:08.125Z,32.28
2022-07-29T03:29:39.552Z,32.30
2022-07-29T03:32:11.249Z,32.25
2022-07-29T03:34:42.592Z,32.32
2022-07-29T03:37:13.953Z,32.25
2022-07-29T03:39:47.223Z,32.34
2022-07-29T03:42:22.618Z,32.03
2022-07-29T03:44:57.147Z,32.05
2022-07-29T03:47:49.586Z,32.19
2022-07-29T03:50:24.065Z,32.37
2022-07-29T03:52:56.033Z,32.37
2022-07-29T03:55:28.653Z,32.39
2022-07-29T03:58:01.294Z,32.48
2022-07-29T04:00:36.013Z,32.15
2022-07-29T04:03:10.624Z,32.53
2022-07-29T04:05:43.150Z,32.54
2022-07-29T04:08:14.634Z,32.49
2022-07-29T04:10:46.153Z,32.55
2022-07-29T04:13:17.879Z,32.55
2022-07-29T04:15:49.418Z,32.57
2022-07-29T04:18:20.852Z,32.57
2022-07-29T04:20:52.614Z,32.60
2022-07-29T04:23:23.576Z,32.28
2022-07-29T04:25:54.932Z,32.61
2022-07-29T04:28:26.345Z,32.64
2022-07-29T04:30:57.989Z,32.54
2022-07-29T04:33:29.476Z,32.67
2022-07-29T04:36:00.907Z,32.69
2022-07-29T04:38:32.555Z,32.70
2022-07-29T04:41:04.138Z,32.72
2022-07-29T04:43:38.931Z,32.73
2022-07-29T04:46:10.624Z,32.78
2022-07-29T04:48:42.208Z,32.76
2022-07-29T04:51:14.416Z,32.81
2022-07-29T04:53:45.839Z,32.81
2022-07-29T04:56:17.249Z,32.78
2022-07-29T04:58:48.986Z,32.83
2022-07-29T05:01:20.772Z,32.86
2022-07-29T05:03:53.974Z,32.90
2022-07-29T05:06:28.437Z,32.82
2022-07-29T05:08:59.719Z,32.91
2022-07-29T05:11:31.091Z,32.94
2022-07-29T05:14:02.558Z,32.97
2022-07-29T05:16:34.917Z,33.01
2022-07-29T05:19:08.593Z,32.70
2022-07-29T05:21:42.224Z,33.02
2022-07-29T05:24:14.340Z,33.05
2022-07-29T05:26:48.062Z,33.10
2022-07-29T05:29:44.127Z,33.07
2022-07-29T05:32:11.096Z,33.12
2022-07-29T05:34:50.722Z,33.15
2022-07-29T05:37:23.383Z,33.19
2022-07-29T05:39:56.705Z,33.19
2022-07-29T05:42:29.566Z,33.23
2022-07-29T05:45:01.217Z,33.24
2022-07-29T05:47:32.954Z,32.94
2022-07-29T05:50:04.428Z,33.22
2022-07-29T05:52:36.624Z,33.29
2022-07-29T05:55:08.476Z,33.29
2022-07-29T05:57:39.228Z,33.01
2022-07-29T06:00:11.694Z,33.29
2022-07-29T06:02:45.895Z,33.34
2022-07-29T06:05:17.868Z,33.34
2022-07-29T06:07:50.213Z,33.42
2022-07-29T06:10:23.994Z,33.25
2022-07-29T06:12:58.918Z,33.48
2022-07-29T06:15:30.649Z,33.50
2022-07-29T06:18:02.475Z,33.45
2022-07-29T06:20:35.008Z,33.57
2022-07-29T06:23:07.053Z,33.60
2022-07-29T06:25:39.153Z,33.63
2022-07-29T06:28:10.120Z,33.36
2022-07-29T06:30:42.729Z,33.66
2022-07-29T06:33:21.173Z,33.70
2022-07-29T06:35:53.541Z,33.74
2022-07-29T06:38:30.780Z,33.68
2022-07-29T06:41:08.358Z,33.79
2022-07-29T06:43:51.854Z,33.75
2022-07-29T06:46:25.228Z,33.78
2022-07-29T06:48:57.129Z,33.85
2022-07-29T06:51:29.919Z,33.94
2022-07-29T06:54:02.654Z,33.97
2022-07-29T06:56:40.469Z,34.01
2022-07-29T06:59:13.714Z,33.73
2022-07-29T07:01:46.226Z,33.76
2022-07-29T07:04:19.035Z,34.08
2022-07-29T07:06:49.972Z,33.78
2022-07-29T07:09:21.470Z,34.09
2022-07-29T07:11:52.469Z,33.86
2022-07-29T07:14:23.871Z,34.12
2022-07-29T07:16:55.339Z,34.20
2022-07-29T07:19:26.841Z,34.23
2022-07-29T07:21:58.475Z,34.28
2022-07-29T07:24:30.130Z,34.28
2022-07-29T07:27:01.985Z,34.21
2022-07-29T07:29:33.377Z,34.35
2022-07-29T07:32:05.623Z,33.75
2022-07-29T07:34:37.389Z,34.35
2022-07-29T07:37:08.513Z,34.15
2022-07-29T07:39:40.280Z,34.41
2022-07-29T07:42:13.972Z,34.36
2022-07-29T07:45:10.989Z,34.46
2022-07-29T07:47:36.745Z,34.46
2022-07-29T07:50:18.230Z,34.19
2022-07-29T07:52:55.897Z,34.53
2022-07-29T07:55:28.058Z,34.54
2022-07-29T07:58:00.126Z,34.54
2022-07-29T08:00:31.914Z,34.56
2022-07-29T08:03:03.241Z,34.55
2022-07-29T08:05:49.862Z,34.57
2022-07-29T08:08:22.046Z,34.60
2022-07-29T08:10:58.114Z,34.60
2022-07-29T08:13:32.520Z,34.15
2022-07-29T08:16:04.227Z,34.62
2022-07-29T08:18:38.769Z,34.64
2022-07-29T08:21:10.667Z,34.61
2022-07-29T08:23:52.789Z,34.65
2022-07-29T08:26:26.126Z,34.65
2022-07-29T08:28:57.741Z,34.55
2022-07-29T08:31:29.254Z,34.65
2022-07-29T08:34:02.249Z,34.61
2022-07-29T08:36:34.395Z,34.67
2022-07-29T08:39:07.332Z,34.29
2022-07-29T08:41:39.120Z,34.58
2022-07-29T08:44:09.927Z,34.38
2022-07-29T08:46:42.058Z,34.63
2022-07-29T08:49:13.662Z,34.65
2022-07-29T08:51:49.175Z,34.67
2022-07-29T08:54:21.986Z,34.67
2022-07-29T08:56:55.141Z,34.67
2022-07-29T08:59:31.281Z,34.51
2022-07-29T09:02:04.388Z,34.68
2022-07-29T09:04:38.823Z,34.39
2022-07-29T09:07:12.000Z,34.61
2022-07-29T09:09:43.766Z,34.68
2022-07-29T09:12:28.633Z,34.69
2022-07-29T09:15:01.013Z,34.47
2022-07-29T09:17:50.513Z,34.28
2022-07-29T09:20:26.824Z,34.67
2022-07-29T09:22:58.323Z,34.68
2022-07-29T09:25:41.736Z,34.35
2022-07-29T09:28:20.739Z,34.47
2022-07-29T09:31:01.513Z,34.37
2022-07-29T09:33:42.961Z,34.67
2022-07-29T09:36:14.497Z,34.63
2022-07-29T09:38:45.843Z,34.66
2022-07-29T09:41:17.290Z,34.66
2022-07-29T09:44:00.516Z,34.24
2022-07-29T09:46:32.081Z,34.64
2022-07-29T09:49:11.379Z,34.63
2022-07-29T09:51:43.780Z,34.58
2022-07-29T09:54:29.152Z,34.19
2022-07-29T09:57:00.570Z,34.66
2022-07-29T09:59:32.008Z,34.55
2022-07-29T10:02:03.160Z,34.34
2022-07-29T10:04:45.107Z,34.55
2022-07-29T10:07:16.478Z,34.66
2022-07-29T10:09:58.942Z,34.61
2022-07-29T10:12:30.526Z,34.65
2022-07-29T10:15:04.612Z,34.64
2022-07-29T10:17:36.115Z,34.36
2022-07-29T10:20:16.378Z,34.64
2022-07-29T10:22:53.756Z,34.64
2022-07-29T10:25:29.186Z,34.64
2022-07-29T10:28:00.823Z,34.57
2022-07-29T10:30:32.317Z,34.61
2022-07-29T10:33:18.267Z,34.36
2022-07-29T10:36:11.201Z,34.60
2022-07-29T10:38:56.798Z,34.15
2022-07-29T10:42:00.407Z,34.63
2022-07-29T10:44:32.678Z,34.51
2022-07-29T10:47:04.814Z,34.55
2022-07-29T10:49:35.767Z,34.28
2022-07-29T10:52:11.828Z,34.51
2022-07-29T10:54:50.756Z,34.41
2022-07-29T10:57:53.511Z,34.35
2022-07-29T11:00:32.148Z,34.03
2022-07-29T11:03:04.684Z,33.91
2022-07-29T11:06:02.037Z,33.94
2022-07-29T11:08:40.397Z,33.96
2022-07-29T11:11:29.685Z,33.85
2022-07-29T11:14:01.395Z,33.95
2022-07-29T11:17:05.992Z,33.95
2022-07-29T11:19:40.116Z,34.13
2022-07-29T11:22:16.618Z,34.18
2022-07-29T11:25:08.030Z,34.21
2022-07-29T11:27:41.924Z,34.25
2022-07-29T11:30:14.637Z,34.19
2022-07-29T11:32:48.584Z,34.26
2022-07-29T11:35:38.525Z,34.32
2022-07-29T11:38:28.874Z,34.28
2022-07-29T11:41:29.411Z,34.25
2022-07-29T11:44:03.573Z,34.36
2022-07-29T11:46:54.280Z,34.19
2022-07-29T11:49:32.073Z,34.37
2022-07-29T11:52:05.567Z,34.38
2022-07-29T11:54:51.913Z,34.40
2022-07-29T11:57:37.204Z,34.37
2022-07-29T12:00:18.576Z,34.36
2022-07-29T12:02:50.428Z,34.36
2022-07-29T12:05:36.895Z,34.31
2022-07-29T12:08:17.028Z,34.30
2022-07-29T12:10:49.708Z,34.31
2022-07-29T12:13:37.108Z,34.03
2022-07-29T12:16:09.311Z,34.28
2022-07-29T12:18:59.250Z,34.18
2022-07-29T12:21:31.305Z,34.28
2022-07-29T12:24:09.405Z,34.24
2022-07-29T12:26:55.994Z,33.97
2022-07-29T12:29:34.685Z,33.92
2022-07-29T12:32:14.405Z,33.79
2022-07-29T12:34:51.195Z,33.69
2022-07-29T12:37:40.559Z,33.33
2022-07-29T12:40:15.454Z,33.55
2022-07-29T12:43:13.417Z,33.43
2022-07-29T12:45:56.744Z,33.49
2022-07-29T12:48:42.907Z,32.98
2022-07-29T12:51:16.733Z,33.28
2022-07-29T12:54:18.551Z,33.25
2022-07-29T12:57:01.002Z,33.22
2022-07-29T12:59:32.881Z,33.09
2022-07-29T13:02:05.708Z,32.96
2022-07-29T13:04:39.972Z,32.83
2022-07-29T13:07:11.579Z,32.75
2022-07-29T13:09:50.982Z,32.27
2022-07-29T13:12:23.308Z,32.55
2022-07-29T13:14:54.886Z,32.47
2022-07-29T13:17:27.245Z,32.40
2022-07-29T13:20:14.900Z,32.13
2022-07-29T13:22:51.296Z,32.30
2022-07-29T13:25:34.220Z,32.01
2022-07-29T13:28:05.774Z,32.16
2022-07-29T13:30:46.126Z,32.14
2022-07-29T13:33:17.944Z,32.10
2022-07-29T13:35:50.236Z,32.01
2022-07-29T13:38:21.696Z,31.97
2022-07-29T13:41:03.570Z,31.94
2022-07-29T13:43:35.024Z,31.82
2022-07-29T13:46:06.915Z,31.88
2022-07-29T13:48:38.716Z,31.89
2022-07-29T13:51:11.171Z,31.85
2022-07-29T13:53:42.662Z,31.81
2022-07-29T13:56:14.093Z,31.83
2022-07-29T13:58:45.624Z,31.78
2022-07-29T14:01:17.820Z,31.75
2022-07-29T14:03:49.419Z,31.74
2022-07-29T14:06:22.297Z,31.67
2022-07-29T14:08:53.748Z,31.44
2022-07-29T14:11:25.397Z,31.57
2022-07-29T14:13:57.039Z,31.51
2022-07-29T14:16:28.781Z,31.37
2022-07-29T14:18:59.874Z,31.04
2022-07-29T14:21:31.317Z,31.24
2022-07-29T14:24:17.850Z,31.16
2022-07-29T14:26:53.259Z,31.07
2022-07-29T14:29:24.850Z,30.99
2022-07-29T14:32:11.580Z,30.91
2022-07-29T14:34:43.360Z,30.81
2022-07-29T14:37:15.899Z,30.42
2022-07-29T14:39:47.601Z,30.53
2022-07-29T14:42:18.801Z,30.30
2022-07-29T14:44:51.777Z,30.55
2022-07-29T14:47:24.225Z,30.48
2022-07-29T14:49:55.678Z,30.54
2022-07-29T14:52:27.093Z,30.48
2022-07-29T14:54:58.554Z,30.45
2022-07-29T14:57:30.035Z,30.43
2022-07-29T15:00:01.584Z,30.40
2022-07-29T15:02:59.389Z,30.35
2022-07-29T15:05:24.324Z,30.22
2022-07-29T15:07:56.923Z,30.22
2022-07-29T15:10:31.513Z,30.16
2022-07-29T15:13:02.888Z,30.20
2022-07-29T15:15:34.313Z,30.13
2022-07-29T15:18:06.220Z,30.15
2022-07-29T15:20:37.130Z,29.86
2022-07-29T15:23:11.936Z,30.09
2022-07-29T15:25:43.349Z,30.08
2022-07-29T15:28:14.771Z,30.04
2022-07-29T15:30:46.150Z,29.95
2022-07-29T15:33:17.478Z,29.97
2022-07-29T15:35:49.322Z,29.95
2022-07-29T15:38:20.997Z,29.96
2022-07-29T15:41:00.675Z,29.93
2022-07-29T15:43:32.056Z,29.91
2022-07-29T15:46:22.071Z,29.82
2022-07-29T15:48:53.518Z,29.89
2022-07-29T15:51:25.052Z,29.89
2022-07-29T15:53:57.100Z,29.81
2022-07-29T15:56:29.225Z,29.84
2022-07-29T15:59:01.446Z,29.77
2022-07-29T16:01:32.259Z,29.54
2022-07-29T16:04:04.301Z,29.79
2022-07-29T16:06:35.163Z,29.51
2022-07-29T16:09:07.173Z,29.77
2022-07-29T16:11:38.733Z,29.76
2022-07-29T16:14:11.007Z,29.77
2022-07-29T16:16:43.431Z,29.77
2022-07-29T16:19:14.211Z,29.46
2022-07-29T16:21:45.664Z,29.72
2022-07-29T16:24:17.118Z,29.70
2022-07-29T16:26:48.463Z,29.67
2022-07-29T16:29:20.761Z,29.67
2022-07-29T16:31:52.444Z,29.57
2022-07-29T16:34:23.783Z,29.65
2022-07-29T16:36:55.080Z,29.53
2022-07-29T16:39:26.625Z,29.59
2022-07-29T16:42:00.448Z,29.28
2022-07-29T16:44:32.811Z,29.65
2022-07-29T16:47:04.246Z,29.71
2022-07-29T16:49:35.698Z,29.76
2022-07-29T16:52:07.707Z,29.82
2022-07-29T16:54:39.093Z,29.56
2022-07-29T16:57:11.121Z,29.87
2022-07-29T16:59:43.308Z,29.94
2022-07-29T17:02:15.306Z,29.64
2022-07-29T17:04:46.767Z,29.96
2022-07-29T17:07:18.305Z,29.65
2022-07-29T17:09:53.832Z,29.90
2022-07-29T17:12:27.234Z,29.93
2022-07-29T17:14:58.614Z,29.93
2022-07-29T17:17:39.565Z,29.98
2022-07-29T17:20:21.517Z,29.81
2022-07-29T17:22:52.787Z,29.88
2022-07-29T17:25:24.693Z,29.88
2022-07-29T17:28:00.769Z,29.86
2022-07-29T17:30:32.691Z,29.84
2022-07-29T17:33:04.152Z,29.74
2022-07-29T17:35:53.925Z,29.84
2022-07-29T17:38:25.157Z,29.86
2022-07-29T17:40:56.606Z,29.81
2022-07-29T17:43:27.891Z,29.81
2022-07-29T17:45:59.637Z,29.81
2022-07-29T17:48:31.200Z,29.78
2022-07-29T17:51:02.578Z,29.76
2022-07-29T17:53:34.012Z,29.75
2022-07-29T17:56:06.365Z,29.79
2022-07-29T17:58:38.174Z,29.43
2022-07-29T18:01:09.991Z,29.68
2022-07-29T18:03:41.851Z,29.61
2022-07-29T18:06:14.123Z,29.71
2022-07-29T18:08:48.876Z,29.62
2022-07-29T18:11:20.246Z,29.70
2022-07-29T18:13:51.805Z,29.70
2022-07-29T18:16:23.013Z,29.25
2022-07-29T18:18:54.341Z,29.60
2022-07-29T18:21:43.508Z,29.49
2022-07-29T18:24:17.603Z,29.57
2022-07-29T18:26:48.993Z,29.62
2022-07-29T18:29:20.392Z,29.59
2022-07-29T18:31:51.866Z,29.55
2022-07-29T18:34:23.532Z,29.54
2022-07-29T18:36:55.101Z,29.59
2022-07-29T18:39:26.639Z,29.49
2022-07-29T18:41:58.585Z,29.59
2022-07-29T18:44:29.952Z,29.55
2022-07-29T18:47:01.855Z,29.51
2022-07-29T18:49:33.688Z,29.48
2022-07-29T18:52:05.199Z,29.49
2022-07-29T18:54:36.521Z,29.49
2022-07-29T18:57:54.671Z,29.40
2022-07-29T18:59:59.709Z,29.46
2022-07-29T19:02:31.205Z,29.43
2022-07-29T19:05:02.859Z,29.46
2022-07-29T19:07:34.593Z,29.45
2022-07-29T19:10:07.462Z,29.45
2022-07-29T19:12:39.294Z,29.43
2022-07-29T19:15:12.029Z,29.38
2022-07-29T19:17:43.296Z,29.40
2022-07-29T19:20:14.872Z,29.38
2022-07-29T19:22:46.475Z,29.35
2022-07-29T19:25:17.887Z,29.33
2022-07-29T19:27:49.392Z,29.34
2022-07-29T19:30:20.822Z,29.35
2022-07-29T19:32:52.345Z,29.28
2022-07-29T19:35:29.475Z,29.24
2022-07-29T19:38:03.268Z,29.34
2022-07-29T19:40:34.608Z,29.35
2022-07-29T19:43:50.562Z,29.32
2022-07-29T19:45:57.414Z,29.28
2022-07-29T19:48:28.775Z,29.28
2022-07-29T19:51:00.179Z,29.29
2022-07-29T19:53:31.648Z,29.27
2022-07-29T19:56:03.118Z,29.23
2022-07-29T19:58:34.655Z,29.20
2022-07-29T20:01:10.318Z,29.05
2022-07-29T20:03:42.221Z,29.10
2022-07-29T20:06:14.080Z,29.11
2022-07-29T20:08:46.592Z,29.19
2022-07-29T20:11:18.254Z,29.19
2022-07-29T20:13:49.508Z,29.12
2022-07-29T20:16:20.759Z,29.14
2022-07-29T20:18:51.926Z,29.13
2022-07-29T20:21:23.507Z,29.08
2022-07-29T20:23:58.144Z,29.16
2022-07-29T20:26:29.402Z,29.13
2022-07-29T20:29:00.755Z,29.12
2022-07-29T20:31:33.401Z,29.11
2022-07-29T20:34:04.730Z,29.06
2022-07-29T20:36:36.901Z,29.10
2022-07-29T20:39:09.037Z,29.08
2022-07-29T20:41:40.634Z,29.05
2022-07-29T20:44:11.704Z,28.66
2022-07-29T20:46:43.191Z,29.00
2022-07-29T20:49:14.413Z,29.00
2022-07-29T20:51:45.722Z,29.00
2022-07-29T20:54:17.031Z,29.00
2022-07-29T20:56:48.096Z,28.97
2022-07-29T20:59:19.801Z,28.94
2022-07-29T21:01:51.056Z,28.96
2022-07-29T21:04:22.706Z,28.92
2022-07-29T21:07:02.175Z,28.95
2022-07-29T21:09:33.629Z,28.95
2022-07-29T21:12:05.808Z,28.96
2022-07-29T21:14:37.341Z,28.96
2022-07-29T21:17:09.546Z,28.91
2022-07-29T21:19:40.340Z,28.56
2022-07-29T21:22:11.761Z,28.83
2022-07-29T21:24:43.211Z,28.91
2022-07-29T21:27:32.552Z,28.90
2022-07-29T21:30:03.946Z,28.86
2022-07-29T21:32:35.442Z,28.88
2022-07-29T21:35:08.440Z,28.77
2022-07-29T21:37:53.622Z,28.89
2022-07-29T21:40:25.064Z,28.63
2022-07-29T21:42:57.013Z,28.76
2022-07-29T21:45:28.328Z,28.79
2022-07-29T21:48:00.051Z,28.80
2022-07-29T21:50:31.400Z,28.72
2022-07-29T21:53:03.466Z,28.67
2022-07-29T21:55:35.763Z,28.76
2022-07-29T21:58:07.586Z,28.75
2022-07-29T22:00:39.646Z,28.79
2022-07-29T22:03:11.936Z,28.74
2022-07-29T22:05:43.432Z,28.74
2022-07-29T22:08:14.956Z,28.78
2022-07-29T22:10:46.240Z,28.80
2022-07-29T22:13:17.535Z,28.75
2022-07-29T22:15:48.915Z,28.75
2022-07-29T22:18:20.718Z,28.73
2022-07-29T22:20:52.784Z,28.76
2022-07-29T22:23:24.225Z,28.76
2022-07-29T22:25:55.505Z,28.62
2022-07-29T22:28:26.815Z,28.68
2022-07-29T22:30:58.763Z,28.74
2022-07-29T22:33:30.418Z,28.48
2022-07-29T22:36:01.849Z,28.73
2022-07-29T22:38:33.299Z,28.71
2022-07-29T22:41:04.713Z,28.71
2022-07-29T22:43:36.146Z,28.67
2022-07-29T22:46:10.092Z,28.70
2022-07-29T22:48:42.254Z,28.71
2022-07-29T22:51:13.588Z,28.67
2022-07-29T22:53:44.930Z,28.66
2022-07-29T22:56:16.402Z,28.65
2022-07-29T22:58:47.810Z,28.61
2022-07-29T23:01:37.745Z,28.37
2022-07-29T23:04:09.569Z,28.68
2022-07-29T23:06:40.864Z,28.73
2022-07-29T23:09:12.775Z,28.84
2022-07-29T23:11:44.223Z,28.98
2022-07-29T23:14:15.841Z,29.01
2022-07-29T23:16:47.860Z,29.13
2022-07-29T23:19:19.514Z,29.23
2022-07-29T23:21:50.973Z,29.31
2022-07-29T23:24:22.314Z,29.38
2022-07-29T23:26:54.166Z,29.46
2022-07-29T23:29:25.491Z,29.52
2022-07-29T23:31:57.177Z,29.59
2022-07-29T23:34:28.734Z,29.67
2022-07-29T23:37:00.627Z,29.73
2022-07-29T23:39:32.065Z,29.77
2022-07-29T23:42:04.218Z,29.80
2022-07-29T23:44:34.998Z,29.62
2022-07-29T23:47:07.014Z,29.90
2022-07-29T23:49:38.443Z,29.95
2022-07-29T23:52:10.059Z,29.97
2022-07-29T23:54:41.410Z,30.04
2022-07-29T23:57:12.635Z,30.10
2022-07-29T23:59:44.140Z,29.88
